sensor_id;sensor_type;location;lat;lon;timestamp;P1;durP1;ratioP1;P2;durP2;ratioP2
17790;SDS011;9019;48.132;-1.210;2023-02-24T00:01:19;18.80;;;14.30;;
17790;SDS011;9019;48.132;-1.210;2023-02-24T00:03:49;22.57;;;16.63;;
17790;SDS011;9019;48.132;-1.210;2023-02-24T00:06:16;21.57;;;15.37;;
17790;SDS011;9019;48.132;-1.210;2023-02-24T00:08:44;24.97;;;20.20;;
17790;SDS011;9019;48.132;-1.210;2023-02-24T00:11:12;22.93;;;15.80;;
17790;SDS011;9019;48.132;-1.210;2023-02-24T00:13:39;23.00;;;16.70;;
17790;SDS011;9019;48.132;-1.210;2023-02-24T00:16:12;23.57;;;16.87;;
17790;SDS011;9019;48.132;-1.210;2023-02-24T00:18:40;19.77;;;14.03;;
17790;SDS011;9019;48.132;-1.210;2023-02-24T00:21:08;20.40;;;14.47;;
17790;SDS011;9019;48.132;-1.210;2023-02-24T00:23:38;20.93;;;14.13;;
17790;SDS011;9019;48.132;-1.210;2023-02-24T00:26:06;20.57;;;14.50;;
17790;SDS011;9019;48.132;-1.210;2023-02-24T00:28:33;20.07;;;13.40;;
17790;SDS011;9019;48.132;-1.210;2023-02-24T00:31:01;20.43;;;14.20;;
17790;SDS011;9019;48.132;-1.210;2023-02-24T00:33:31;21.07;;;14.87;;
17790;SDS011;9019;48.132;-1.210;2023-02-24T00:36:08;20.57;;;14.40;;
17790;SDS011;9019;48.132;-1.210;2023-02-24T00:38:35;22.77;;;15.70;;
17790;SDS011;9019;48.132;-1.210;2023-02-24T00:41:09;21.97;;;15.13;;
17790;SDS011;9019;48.132;-1.210;2023-02-24T00:43:38;25.13;;;16.20;;
17790;SDS011;9019;48.132;-1.210;2023-02-24T00:46:05;24.13;;;15.47;;
17790;SDS011;9019;48.132;-1.210;2023-02-24T00:48:37;24.53;;;15.50;;
17790;SDS011;9019;48.132;-1.210;2023-02-24T00:51:06;24.80;;;16.07;;
17790;SDS011;9019;48.132;-1.210;2023-02-24T00:53:34;23.60;;;15.37;;
17790;SDS011;9019;48.132;-1.210;2023-02-24T00:56:02;24.03;;;16.10;;
17790;SDS011;9019;48.132;-1.210;2023-02-24T00:58:31;24.97;;;16.43;;
17790;SDS011;9019;48.132;-1.210;2023-02-24T01:00:59;26.87;;;17.20;;
17790;SDS011;9019;48.132;-1.210;2023-02-24T01:03:26;25.23;;;16.10;;
17790;SDS011;9019;48.132;-1.210;2023-02-24T01:05:55;26.57;;;16.63;;
17790;SDS011;9019;48.132;-1.210;2023-02-24T01:08:22;27.03;;;17.47;;
17790;SDS011;9019;48.132;-1.210;2023-02-24T01:10:58;27.13;;;16.70;;
17790;SDS011;9019;48.132;-1.210;2023-02-24T01:13:44;28.00;;;17.47;;
17790;SDS011;9019;48.132;-1.210;2023-02-24T01:16:11;27.27;;;16.97;;
17790;SDS011;9019;48.132;-1.210;2023-02-24T01:18:42;31.57;;;18.23;;
17790;SDS011;9019;48.132;-1.210;2023-02-24T01:21:11;31.47;;;17.80;;
17790;SDS011;9019;48.132;-1.210;2023-02-24T01:23:38;30.73;;;18.27;;
17790;SDS011;9019;48.132;-1.210;2023-02-24T01:26:06;27.97;;;17.77;;
17790;SDS011;9019;48.132;-1.210;2023-02-24T01:28:34;29.53;;;17.43;;
17790;SDS011;9019;48.132;-1.210;2023-02-24T01:31:01;30.80;;;17.70;;
17790;SDS011;9019;48.132;-1.210;2023-02-24T01:33:30;30.13;;;17.70;;
17790;SDS011;9019;48.132;-1.210;2023-02-24T01:36:07;33.57;;;18.60;;
17790;SDS011;9019;48.132;-1.210;2023-02-24T01:38:35;30.20;;;18.50;;
17790;SDS011;9019;48.132;-1.210;2023-02-24T01:41:03;32.63;;;17.43;;
17790;SDS011;9019;48.132;-1.210;2023-02-24T01:43:31;30.00;;;18.30;;
17790;SDS011;9019;48.132;-1.210;2023-02-24T01:45:59;32.43;;;18.67;;
17790;SDS011;9019;48.132;-1.210;2023-02-24T01:48:26;30.40;;;17.83;;
17790;SDS011;9019;48.132;-1.210;2023-02-24T01:50:55;31.37;;;17.57;;
17790;SDS011;9019;48.132;-1.210;2023-02-24T01:53:22;31.70;;;18.00;;
17790;SDS011;9019;48.132;-1.210;2023-02-24T01:55:51;32.47;;;18.57;;
17790;SDS011;9019;48.132;-1.210;2023-02-24T01:58:19;31.10;;;18.50;;
17790;SDS011;9019;48.132;-1.210;2023-02-24T02:00:48;31.73;;;18.50;;
17790;SDS011;9019;48.132;-1.210;2023-02-24T02:03:23;31.30;;;18.27;;
17790;SDS011;9019;48.132;-1.210;2023-02-24T02:05:52;34.70;;;19.33;;
17790;SDS011;9019;48.132;-1.210;2023-02-24T02:08:20;28.97;;;18.57;;
17790;SDS011;9019;48.132;-1.210;2023-02-24T02:10:48;33.80;;;18.60;;
17790;SDS011;9019;48.132;-1.210;2023-02-24T02:13:24;33.67;;;18.93;;
17790;SDS011;9019;48.132;-1.210;2023-02-24T02:15:54;35.80;;;19.50;;
17790;SDS011;9019;48.132;-1.210;2023-02-24T02:18:27;33.97;;;19.17;;
17790;SDS011;9019;48.132;-1.210;2023-02-24T02:23:53;35.07;;;20.27;;
17790;SDS011;9019;48.132;-1.210;2023-02-24T02:26:29;37.43;;;20.23;;
17790;SDS011;9019;48.132;-1.210;2023-02-24T02:29:14;36.10;;;20.03;;
17790;SDS011;9019;48.132;-1.210;2023-02-24T02:34:36;41.10;;;20.73;;
17790;SDS011;9019;48.132;-1.210;2023-02-24T02:37:09;38.83;;;21.27;;
17790;SDS011;9019;48.132;-1.210;2023-02-24T02:39:41;43.57;;;22.17;;
17790;SDS011;9019;48.132;-1.210;2023-02-24T02:42:12;40.13;;;21.73;;
17790;SDS011;9019;48.132;-1.210;2023-02-24T02:44:47;39.20;;;22.07;;
17790;SDS011;9019;48.132;-1.210;2023-02-24T02:47:21;43.67;;;23.30;;
17790;SDS011;9019;48.132;-1.210;2023-02-24T02:49:52;40.07;;;21.70;;
17790;SDS011;9019;48.132;-1.210;2023-02-24T02:52:24;40.43;;;22.20;;
17790;SDS011;9019;48.132;-1.210;2023-02-24T02:54:53;40.07;;;21.83;;
17790;SDS011;9019;48.132;-1.210;2023-02-24T02:57:22;43.27;;;22.37;;
17790;SDS011;9019;48.132;-1.210;2023-02-24T02:59:51;42.47;;;22.20;;
17790;SDS011;9019;48.132;-1.210;2023-02-24T03:02:22;41.83;;;22.57;;
17790;SDS011;9019;48.132;-1.210;2023-02-24T03:04:55;45.50;;;23.23;;
17790;SDS011;9019;48.132;-1.210;2023-02-24T03:07:24;44.63;;;23.87;;
17790;SDS011;9019;48.132;-1.210;2023-02-24T03:09:55;45.53;;;23.50;;
17790;SDS011;9019;48.132;-1.210;2023-02-24T03:12:25;44.07;;;23.83;;
17790;SDS011;9019;48.132;-1.210;2023-02-24T03:14:55;46.67;;;24.30;;
17790;SDS011;9019;48.132;-1.210;2023-02-24T03:17:24;45.87;;;23.97;;
17790;SDS011;9019;48.132;-1.210;2023-02-24T03:19:55;47.03;;;23.83;;
17790;SDS011;9019;48.132;-1.210;2023-02-24T03:22:26;46.00;;;24.30;;
17790;SDS011;9019;48.132;-1.210;2023-02-24T03:24:58;47.50;;;24.47;;
17790;SDS011;9019;48.132;-1.210;2023-02-24T03:27:27;48.73;;;25.10;;
17790;SDS011;9019;48.132;-1.210;2023-02-24T03:29:56;49.60;;;24.77;;
17790;SDS011;9019;48.132;-1.210;2023-02-24T03:32:25;51.20;;;25.47;;
17790;SDS011;9019;48.132;-1.210;2023-02-24T03:34:58;47.20;;;24.87;;
17790;SDS011;9019;48.132;-1.210;2023-02-24T03:37:28;47.80;;;24.93;;
17790;SDS011;9019;48.132;-1.210;2023-02-24T03:39:56;50.63;;;25.77;;
17790;SDS011;9019;48.132;-1.210;2023-02-24T03:42:24;53.00;;;24.93;;
17790;SDS011;9019;48.132;-1.210;2023-02-24T03:44:52;51.83;;;25.80;;
17790;SDS011;9019;48.132;-1.210;2023-02-24T03:47:22;48.57;;;24.57;;
17790;SDS011;9019;48.132;-1.210;2023-02-24T03:49:50;53.07;;;26.03;;
17790;SDS011;9019;48.132;-1.210;2023-02-24T03:52:20;50.00;;;26.20;;
17790;SDS011;9019;48.132;-1.210;2023-02-24T03:55:00;51.67;;;26.80;;
17790;SDS011;9019;48.132;-1.210;2023-02-24T03:57:35;51.60;;;26.23;;
17790;SDS011;9019;48.132;-1.210;2023-02-24T04:00:20;48.00;;;24.33;;
17790;SDS011;9019;48.132;-1.210;2023-02-24T04:02:52;47.57;;;25.00;;
17790;SDS011;9019;48.132;-1.210;2023-02-24T04:05:21;50.00;;;26.33;;
17790;SDS011;9019;48.132;-1.210;2023-02-24T04:07:54;52.77;;;25.80;;
17790;SDS011;9019;48.132;-1.210;2023-02-24T04:10:25;50.43;;;24.37;;
17790;SDS011;9019;48.132;-1.210;2023-02-24T04:12:56;51.07;;;25.57;;
17790;SDS011;9019;48.132;-1.210;2023-02-24T04:15:28;51.13;;;25.80;;
17790;SDS011;9019;48.132;-1.210;2023-02-24T04:17:57;48.37;;;24.10;;
17790;SDS011;9019;48.132;-1.210;2023-02-24T04:20:27;45.90;;;24.57;;
17790;SDS011;9019;48.132;-1.210;2023-02-24T04:23:00;47.20;;;24.03;;
17790;SDS011;9019;48.132;-1.210;2023-02-24T04:25:27;51.67;;;24.87;;
17790;SDS011;9019;48.132;-1.210;2023-02-24T04:27:56;45.27;;;23.33;;
17790;SDS011;9019;48.132;-1.210;2023-02-24T04:30:25;49.07;;;23.93;;
17790;SDS011;9019;48.132;-1.210;2023-02-24T04:32:54;48.87;;;23.53;;
17790;SDS011;9019;48.132;-1.210;2023-02-24T04:35:21;47.07;;;23.70;;
17790;SDS011;9019;48.132;-1.210;2023-02-24T04:37:49;46.63;;;23.10;;
17790;SDS011;9019;48.132;-1.210;2023-02-24T04:40:18;44.37;;;22.43;;
17790;SDS011;9019;48.132;-1.210;2023-02-24T04:42:46;45.10;;;21.67;;
17790;SDS011;9019;48.132;-1.210;2023-02-24T04:45:14;43.40;;;22.23;;
17790;SDS011;9019;48.132;-1.210;2023-02-24T04:47:41;44.60;;;21.67;;
17790;SDS011;9019;48.132;-1.210;2023-02-24T04:50:13;43.07;;;20.70;;
17790;SDS011;9019;48.132;-1.210;2023-02-24T04:52:47;49.40;;;23.63;;
17790;SDS011;9019;48.132;-1.210;2023-02-24T04:55:15;42.70;;;21.07;;
17790;SDS011;9019;48.132;-1.210;2023-02-24T04:57:44;43.57;;;21.33;;
17790;SDS011;9019;48.132;-1.210;2023-02-24T05:00:12;39.90;;;20.27;;
17790;SDS011;9019;48.132;-1.210;2023-02-24T05:02:46;42.93;;;21.40;;
17790;SDS011;9019;48.132;-1.210;2023-02-24T05:05:14;42.20;;;21.00;;
17790;SDS011;9019;48.132;-1.210;2023-02-24T05:07:41;42.33;;;20.60;;
17790;SDS011;9019;48.132;-1.210;2023-02-24T05:10:11;40.57;;;19.77;;
17790;SDS011;9019;48.132;-1.210;2023-02-24T05:12:39;40.37;;;19.90;;
17790;SDS011;9019;48.132;-1.210;2023-02-24T05:15:08;37.53;;;19.70;;
17790;SDS011;9019;48.132;-1.210;2023-02-24T05:17:37;41.17;;;19.93;;
17790;SDS011;9019;48.132;-1.210;2023-02-24T05:20:05;40.33;;;20.00;;
17790;SDS011;9019;48.132;-1.210;2023-02-24T05:22:50;45.73;;;21.50;;
17790;SDS011;9019;48.132;-1.210;2023-02-24T05:25:17;42.57;;;20.17;;
17790;SDS011;9019;48.132;-1.210;2023-02-24T05:27:45;38.80;;;19.10;;
17790;SDS011;9019;48.132;-1.210;2023-02-24T05:30:14;39.10;;;19.97;;
17790;SDS011;9019;48.132;-1.210;2023-02-24T05:32:42;37.83;;;19.23;;
17790;SDS011;9019;48.132;-1.210;2023-02-24T05:35:10;41.07;;;20.20;;
17790;SDS011;9019;48.132;-1.210;2023-02-24T05:37:37;40.03;;;19.97;;
17790;SDS011;9019;48.132;-1.210;2023-02-24T05:40:07;39.30;;;18.77;;
17790;SDS011;9019;48.132;-1.210;2023-02-24T05:42:37;36.57;;;18.43;;
17790;SDS011;9019;48.132;-1.210;2023-02-24T05:45:05;38.73;;;19.10;;
17790;SDS011;9019;48.132;-1.210;2023-02-24T05:47:34;34.80;;;18.43;;
17790;SDS011;9019;48.132;-1.210;2023-02-24T05:50:01;35.43;;;17.97;;
17790;SDS011;9019;48.132;-1.210;2023-02-24T05:52:29;33.27;;;18.17;;
17790;SDS011;9019;48.132;-1.210;2023-02-24T05:54:59;33.73;;;17.87;;
17790;SDS011;9019;48.132;-1.210;2023-02-24T05:57:30;36.83;;;18.83;;
17790;SDS011;9019;48.132;-1.210;2023-02-24T06:00:00;34.47;;;17.63;;
17790;SDS011;9019;48.132;-1.210;2023-02-24T06:02:40;33.23;;;17.67;;
17790;SDS011;9019;48.132;-1.210;2023-02-24T06:05:13;35.97;;;18.80;;
17790;SDS011;9019;48.132;-1.210;2023-02-24T06:07:49;34.80;;;17.97;;
17790;SDS011;9019;48.132;-1.210;2023-02-24T06:10:16;34.23;;;17.50;;
17790;SDS011;9019;48.132;-1.210;2023-02-24T06:12:46;32.37;;;18.20;;
17790;SDS011;9019;48.132;-1.210;2023-02-24T06:15:13;35.20;;;19.17;;
17790;SDS011;9019;48.132;-1.210;2023-02-24T06:17:43;33.47;;;18.00;;
17790;SDS011;9019;48.132;-1.210;2023-02-24T06:20:10;32.77;;;16.60;;
17790;SDS011;9019;48.132;-1.210;2023-02-24T06:22:39;36.33;;;18.63;;
17790;SDS011;9019;48.132;-1.210;2023-02-24T06:25:07;31.50;;;17.07;;
17790;SDS011;9019;48.132;-1.210;2023-02-24T06:27:35;32.03;;;16.80;;
17790;SDS011;9019;48.132;-1.210;2023-02-24T06:30:04;35.87;;;18.53;;
17790;SDS011;9019;48.132;-1.210;2023-02-24T06:32:34;32.27;;;17.67;;
17790;SDS011;9019;48.132;-1.210;2023-02-24T06:35:03;34.13;;;17.33;;
17790;SDS011;9019;48.132;-1.210;2023-02-24T06:37:30;33.27;;;18.03;;
17790;SDS011;9019;48.132;-1.210;2023-02-24T06:39:59;31.70;;;18.00;;
17790;SDS011;9019;48.132;-1.210;2023-02-24T06:42:39;30.57;;;17.13;;
17790;SDS011;9019;48.132;-1.210;2023-02-24T06:45:07;33.13;;;17.97;;
17790;SDS011;9019;48.132;-1.210;2023-02-24T06:47:35;33.57;;;18.07;;
17790;SDS011;9019;48.132;-1.210;2023-02-24T06:50:05;33.77;;;17.67;;
17790;SDS011;9019;48.132;-1.210;2023-02-24T06:52:33;33.53;;;17.80;;
17790;SDS011;9019;48.132;-1.210;2023-02-24T06:55:00;34.43;;;18.50;;
17790;SDS011;9019;48.132;-1.210;2023-02-24T06:57:28;35.20;;;18.53;;
17790;SDS011;9019;48.132;-1.210;2023-02-24T06:59:58;35.23;;;19.27;;
17790;SDS011;9019;48.132;-1.210;2023-02-24T07:02:40;32.13;;;18.17;;
17790;SDS011;9019;48.132;-1.210;2023-02-24T07:05:09;34.87;;;19.30;;
17790;SDS011;9019;48.132;-1.210;2023-02-24T07:07:38;35.60;;;19.60;;
17790;SDS011;9019;48.132;-1.210;2023-02-24T07:10:10;33.37;;;18.70;;
17790;SDS011;9019;48.132;-1.210;2023-02-24T07:12:38;33.47;;;19.27;;
17790;SDS011;9019;48.132;-1.210;2023-02-24T07:15:06;33.67;;;19.03;;
17790;SDS011;9019;48.132;-1.210;2023-02-24T07:17:33;34.03;;;19.53;;
17790;SDS011;9019;48.132;-1.210;2023-02-24T07:20:01;36.00;;;19.53;;
17790;SDS011;9019;48.132;-1.210;2023-02-24T07:22:38;30.83;;;18.27;;
17790;SDS011;9019;48.132;-1.210;2023-02-24T07:25:06;34.47;;;18.93;;
17790;SDS011;9019;48.132;-1.210;2023-02-24T07:27:33;33.40;;;18.10;;
17790;SDS011;9019;48.132;-1.210;2023-02-24T07:30:01;31.97;;;18.30;;
17790;SDS011;9019;48.132;-1.210;2023-02-24T07:32:30;30.87;;;17.73;;
17790;SDS011;9019;48.132;-1.210;2023-02-24T07:34:57;32.43;;;18.47;;
17790;SDS011;9019;48.132;-1.210;2023-02-24T07:37:24;31.70;;;18.07;;
17790;SDS011;9019;48.132;-1.210;2023-02-24T07:39:56;32.00;;;17.80;;
17790;SDS011;9019;48.132;-1.210;2023-02-24T07:42:24;32.10;;;17.73;;
17790;SDS011;9019;48.132;-1.210;2023-02-24T07:44:54;29.87;;;18.00;;
17790;SDS011;9019;48.132;-1.210;2023-02-24T07:47:21;32.60;;;18.13;;
17790;SDS011;9019;48.132;-1.210;2023-02-24T07:49:49;30.33;;;17.37;;
17790;SDS011;9019;48.132;-1.210;2023-02-24T07:52:16;31.87;;;18.50;;
17790;SDS011;9019;48.132;-1.210;2023-02-24T07:54:43;34.00;;;18.17;;
17790;SDS011;9019;48.132;-1.210;2023-02-24T07:57:12;31.97;;;18.40;;
17790;SDS011;9019;48.132;-1.210;2023-02-24T07:59:39;34.70;;;18.30;;
17790;SDS011;9019;48.132;-1.210;2023-02-24T08:02:10;31.80;;;17.47;;
17790;SDS011;9019;48.132;-1.210;2023-02-24T08:04:38;31.03;;;17.63;;
17790;SDS011;9019;48.132;-1.210;2023-02-24T08:07:08;31.47;;;17.37;;
17790;SDS011;9019;48.132;-1.210;2023-02-24T08:09:38;33.10;;;18.17;;
17790;SDS011;9019;48.132;-1.210;2023-02-24T08:12:24;41.40;;;19.53;;
17790;SDS011;9019;48.132;-1.210;2023-02-24T08:14:52;29.27;;;16.93;;
17790;SDS011;9019;48.132;-1.210;2023-02-24T08:17:24;31.63;;;16.97;;
17790;SDS011;9019;48.132;-1.210;2023-02-24T08:19:52;33.13;;;18.03;;
17790;SDS011;9019;48.132;-1.210;2023-02-24T08:22:40;42.63;;;18.37;;
17790;SDS011;9019;48.132;-1.210;2023-02-24T08:25:08;46.33;;;19.10;;
17790;SDS011;9019;48.132;-1.210;2023-02-24T08:27:43;30.20;;;17.03;;
17790;SDS011;9019;48.132;-1.210;2023-02-24T08:30:12;30.20;;;16.60;;
17790;SDS011;9019;48.132;-1.210;2023-02-24T08:32:47;30.67;;;17.13;;
17790;SDS011;9019;48.132;-1.210;2023-02-24T08:35:21;38.30;;;17.83;;
17790;SDS011;9019;48.132;-1.210;2023-02-24T08:37:50;31.37;;;16.53;;
17790;SDS011;9019;48.132;-1.210;2023-02-24T08:40:19;31.60;;;16.63;;
17790;SDS011;9019;48.132;-1.210;2023-02-24T08:43:04;30.03;;;16.07;;
17790;SDS011;9019;48.132;-1.210;2023-02-24T08:45:40;28.07;;;15.80;;
17790;SDS011;9019;48.132;-1.210;2023-02-24T08:48:09;30.50;;;16.10;;
17790;SDS011;9019;48.132;-1.210;2023-02-24T08:50:50;25.70;;;14.97;;
17790;SDS011;9019;48.132;-1.210;2023-02-24T08:53:17;25.73;;;15.20;;
17790;SDS011;9019;48.132;-1.210;2023-02-24T08:55:44;24.47;;;14.60;;
17790;SDS011;9019;48.132;-1.210;2023-02-24T08:58:18;29.23;;;16.30;;
17790;SDS011;9019;48.132;-1.210;2023-02-24T09:00:51;24.23;;;14.33;;
17790;SDS011;9019;48.132;-1.210;2023-02-24T09:03:19;22.70;;;14.23;;
17790;SDS011;9019;48.132;-1.210;2023-02-24T09:05:57;22.93;;;14.63;;
17790;SDS011;9019;48.132;-1.210;2023-02-24T09:08:24;24.87;;;15.13;;
17790;SDS011;9019;48.132;-1.210;2023-02-24T09:10:57;24.70;;;14.30;;
17790;SDS011;9019;48.132;-1.210;2023-02-24T09:13:25;23.90;;;15.10;;
17790;SDS011;9019;48.132;-1.210;2023-02-24T09:15:57;24.33;;;14.10;;
17790;SDS011;9019;48.132;-1.210;2023-02-24T09:18:24;25.33;;;14.37;;
17790;SDS011;9019;48.132;-1.210;2023-02-24T09:20:54;21.03;;;13.37;;
17790;SDS011;9019;48.132;-1.210;2023-02-24T09:23:40;23.33;;;13.27;;
17790;SDS011;9019;48.132;-1.210;2023-02-24T09:26:11;28.07;;;14.57;;
17790;SDS011;9019;48.132;-1.210;2023-02-24T09:28:39;21.57;;;13.00;;
17790;SDS011;9019;48.132;-1.210;2023-02-24T09:31:18;22.43;;;13.43;;
17790;SDS011;9019;48.132;-1.210;2023-02-24T09:33:47;24.00;;;14.17;;
17790;SDS011;9019;48.132;-1.210;2023-02-24T09:36:16;25.93;;;14.93;;
17790;SDS011;9019;48.132;-1.210;2023-02-24T09:38:52;23.40;;;13.60;;
17790;SDS011;9019;48.132;-1.210;2023-02-24T09:41:40;25.00;;;13.43;;
17790;SDS011;9019;48.132;-1.210;2023-02-24T09:44:24;20.57;;;13.63;;
17790;SDS011;9019;48.132;-1.210;2023-02-24T09:46:53;23.90;;;13.60;;
17790;SDS011;9019;48.132;-1.210;2023-02-24T09:49:25;20.63;;;13.37;;
17790;SDS011;9019;48.132;-1.210;2023-02-24T09:52:03;20.73;;;13.20;;
17790;SDS011;9019;48.132;-1.210;2023-02-24T09:54:33;21.83;;;13.27;;
17790;SDS011;9019;48.132;-1.210;2023-02-24T09:57:00;21.00;;;13.83;;
17790;SDS011;9019;48.132;-1.210;2023-02-24T09:59:38;23.80;;;14.10;;
17790;SDS011;9019;48.132;-1.210;2023-02-24T10:02:17;19.70;;;13.33;;
17790;SDS011;9019;48.132;-1.210;2023-02-24T10:04:58;32.87;;;13.93;;
17790;SDS011;9019;48.132;-1.210;2023-02-24T10:07:32;23.67;;;14.00;;
17790;SDS011;9019;48.132;-1.210;2023-02-24T10:10:04;21.17;;;12.87;;
17790;SDS011;9019;48.132;-1.210;2023-02-24T10:12:45;18.77;;;12.27;;
17790;SDS011;9019;48.132;-1.210;2023-02-24T10:15:19;22.30;;;13.30;;
17790;SDS011;9019;48.132;-1.210;2023-02-24T10:18:25;20.67;;;12.90;;
17790;SDS011;9019;48.132;-1.210;2023-02-24T10:20:56;20.60;;;13.13;;
17790;SDS011;9019;48.132;-1.210;2023-02-24T10:23:38;19.40;;;12.87;;
17790;SDS011;9019;48.132;-1.210;2023-02-24T10:26:22;21.00;;;13.43;;
17790;SDS011;9019;48.132;-1.210;2023-02-24T10:29:10;19.13;;;12.53;;
17790;SDS011;9019;48.132;-1.210;2023-02-24T10:31:55;18.00;;;12.27;;
17790;SDS011;9019;48.132;-1.210;2023-02-24T10:34:32;18.70;;;12.60;;
17790;SDS011;9019;48.132;-1.210;2023-02-24T10:37:00;18.43;;;12.10;;
17790;SDS011;9019;48.132;-1.210;2023-02-24T10:39:31;18.57;;;11.37;;
17790;SDS011;9019;48.132;-1.210;2023-02-24T10:41:59;18.43;;;11.47;;
17790;SDS011;9019;48.132;-1.210;2023-02-24T10:44:41;16.60;;;11.10;;
17790;SDS011;9019;48.132;-1.210;2023-02-24T10:47:18;16.67;;;11.60;;
17790;SDS011;9019;48.132;-1.210;2023-02-24T10:49:55;16.87;;;11.47;;
17790;SDS011;9019;48.132;-1.210;2023-02-24T10:52:28;17.57;;;12.00;;
17790;SDS011;9019;48.132;-1.210;2023-02-24T10:55:36;15.93;;;11.67;;
17790;SDS011;9019;48.132;-1.210;2023-02-24T10:58:19;19.10;;;12.63;;
17790;SDS011;9019;48.132;-1.210;2023-02-24T11:01:06;17.60;;;11.63;;
17790;SDS011;9019;48.132;-1.210;2023-02-24T11:03:40;19.10;;;12.30;;
17790;SDS011;9019;48.132;-1.210;2023-02-24T11:06:26;16.47;;;11.77;;
17790;SDS011;9019;48.132;-1.210;2023-02-24T11:09:14;18.43;;;12.13;;
17790;SDS011;9019;48.132;-1.210;2023-02-24T11:11:57;20.23;;;12.53;;
17790;SDS011;9019;48.132;-1.210;2023-02-24T11:14:46;19.27;;;12.67;;
17790;SDS011;9019;48.132;-1.210;2023-02-24T11:17:33;17.35;;;12.10;;
17790;SDS011;9019;48.132;-1.210;2023-02-24T11:20:04;19.20;;;12.27;;
17790;SDS011;9019;48.132;-1.210;2023-02-24T11:22:42;20.17;;;13.47;;
17790;SDS011;9019;48.132;-1.210;2023-02-24T11:25:13;16.70;;;11.33;;
17790;SDS011;9019;48.132;-1.210;2023-02-24T11:27:45;17.83;;;11.97;;
17790;SDS011;9019;48.132;-1.210;2023-02-24T11:30:14;34.70;;;23.67;;
17790;SDS011;9019;48.132;-1.210;2023-02-24T11:32:55;24.93;;;15.67;;
17790;SDS011;9019;48.132;-1.210;2023-02-24T11:35:35;64.07;;;35.63;;
17790;SDS011;9019;48.132;-1.210;2023-02-24T11:38:07;71.93;;;45.97;;
17790;SDS011;9019;48.132;-1.210;2023-02-24T11:40:43;29.33;;;20.03;;
17790;SDS011;9019;48.132;-1.210;2023-02-24T11:43:15;31.80;;;20.87;;
17790;SDS011;9019;48.132;-1.210;2023-02-24T11:45:46;44.63;;;35.70;;
17790;SDS011;9019;48.132;-1.210;2023-02-24T11:48:16;20.13;;;13.90;;
17790;SDS011;9019;48.132;-1.210;2023-02-24T11:50:47;26.03;;;20.63;;
17790;SDS011;9019;48.132;-1.210;2023-02-24T11:53:22;18.57;;;14.03;;
17790;SDS011;9019;48.132;-1.210;2023-02-24T11:55:55;23.40;;;17.63;;
17790;SDS011;9019;48.132;-1.210;2023-02-24T11:58:27;17.30;;;11.67;;
17790;SDS011;9019;48.132;-1.210;2023-02-24T12:01:00;20.43;;;14.57;;
17790;SDS011;9019;48.132;-1.210;2023-02-24T12:03:34;18.87;;;13.33;;
17790;SDS011;9019;48.132;-1.210;2023-02-24T12:08:54;25.07;;;19.73;;
17790;SDS011;9019;48.132;-1.210;2023-02-24T12:11:30;45.23;;;33.00;;
17790;SDS011;9019;48.132;-1.210;2023-02-24T12:14:08;25.27;;;18.83;;
17790;SDS011;9019;48.132;-1.210;2023-02-24T12:16:44;19.50;;;13.53;;
17790;SDS011;9019;48.132;-1.210;2023-02-24T12:19:15;21.77;;;17.13;;
17790;SDS011;9019;48.132;-1.210;2023-02-24T12:21:49;17.67;;;11.60;;
17790;SDS011;9019;48.132;-1.210;2023-02-24T12:24:21;18.03;;;12.13;;
17790;SDS011;9019;48.132;-1.210;2023-02-24T12:26:51;18.70;;;11.93;;
17790;SDS011;9019;48.132;-1.210;2023-02-24T12:32:23;16.43;;;10.97;;
17790;SDS011;9019;48.132;-1.210;2023-02-24T12:35:02;20.17;;;14.23;;
17790;SDS011;9019;48.132;-1.210;2023-02-24T12:37:44;113.20;;;69.73;;
17790;SDS011;9019;48.132;-1.210;2023-02-24T12:40:27;31.60;;;23.60;;
17790;SDS011;9019;48.132;-1.210;2023-02-24T12:43:00;27.73;;;22.50;;
17790;SDS011;9019;48.132;-1.210;2023-02-24T12:45:39;18.80;;;11.50;;
17790;SDS011;9019;48.132;-1.210;2023-02-24T12:48:20;15.43;;;11.60;;
17790;SDS011;9019;48.132;-1.210;2023-02-24T12:51:01;14.03;;;10.30;;
17790;SDS011;9019;48.132;-1.210;2023-02-24T12:53:34;16.33;;;10.83;;
17790;SDS011;9019;48.132;-1.210;2023-02-24T12:56:08;15.73;;;10.27;;
17790;SDS011;9019;48.132;-1.210;2023-02-24T12:58:41;18.63;;;10.60;;
17790;SDS011;9019;48.132;-1.210;2023-02-24T13:01:12;15.77;;;9.80;;
17790;SDS011;9019;48.132;-1.210;2023-02-24T13:03:55;15.20;;;10.30;;
17790;SDS011;9019;48.132;-1.210;2023-02-24T13:06:46;16.77;;;10.33;;
17790;SDS011;9019;48.132;-1.210;2023-02-24T13:09:27;14.83;;;9.73;;
17790;SDS011;9019;48.132;-1.210;2023-02-24T13:12:05;13.90;;;9.53;;
17790;SDS011;9019;48.132;-1.210;2023-02-24T13:14:40;15.13;;;9.63;;
17790;SDS011;9019;48.132;-1.210;2023-02-24T13:17:16;15.53;;;10.20;;
17790;SDS011;9019;48.132;-1.210;2023-02-24T13:19:49;14.90;;;10.20;;
17790;SDS011;9019;48.132;-1.210;2023-02-24T13:22:25;14.77;;;9.73;;
17790;SDS011;9019;48.132;-1.210;2023-02-24T13:24:56;14.47;;;9.30;;
17790;SDS011;9019;48.132;-1.210;2023-02-24T13:31:55;14.93;;;9.63;;
17790;SDS011;9019;48.132;-1.210;2023-02-24T13:35:36;15.13;;;10.90;;
17790;SDS011;9019;48.132;-1.210;2023-02-24T13:38:06;17.20;;;11.30;;
17790;SDS011;9019;48.132;-1.210;2023-02-24T13:40:36;15.97;;;10.93;;
17790;SDS011;9019;48.132;-1.210;2023-02-24T13:43:04;14.00;;;9.80;;
17790;SDS011;9019;48.132;-1.210;2023-02-24T13:45:52;14.60;;;10.40;;
17790;SDS011;9019;48.132;-1.210;2023-02-24T13:48:27;13.03;;;10.13;;
17790;SDS011;9019;48.132;-1.210;2023-02-24T13:51:17;12.30;;;9.63;;
17790;SDS011;9019;48.132;-1.210;2023-02-24T13:54:02;12.67;;;10.10;;
17790;SDS011;9019;48.132;-1.210;2023-02-24T13:56:42;15.73;;;10.40;;
17790;SDS011;9019;48.132;-1.210;2023-02-24T13:59:13;14.73;;;11.70;;
17790;SDS011;9019;48.132;-1.210;2023-02-24T14:01:55;12.43;;;9.77;;
17790;SDS011;9019;48.132;-1.210;2023-02-24T14:04:24;13.77;;;10.63;;
17790;SDS011;9019;48.132;-1.210;2023-02-24T14:06:52;13.77;;;9.60;;
17790;SDS011;9019;48.132;-1.210;2023-02-24T14:09:22;12.87;;;11.10;;
17790;SDS011;9019;48.132;-1.210;2023-02-24T14:11:53;13.17;;;8.90;;
17790;SDS011;9019;48.132;-1.210;2023-02-24T14:14:21;12.93;;;9.97;;
17790;SDS011;9019;48.132;-1.210;2023-02-24T14:16:48;13.30;;;9.70;;
17790;SDS011;9019;48.132;-1.210;2023-02-24T14:19:17;15.23;;;11.30;;
17790;SDS011;9019;48.132;-1.210;2023-02-24T14:21:49;17.57;;;12.30;;
17790;SDS011;9019;48.132;-1.210;2023-02-24T14:24:28;11.93;;;9.43;;
17790;SDS011;9019;48.132;-1.210;2023-02-24T14:26:57;11.17;;;7.37;;
17790;SDS011;9019;48.132;-1.210;2023-02-24T14:29:25;12.03;;;7.60;;
17790;SDS011;9019;48.132;-1.210;2023-02-24T14:31:58;12.73;;;8.10;;
17790;SDS011;9019;48.132;-1.210;2023-02-24T14:34:26;13.50;;;10.53;;
17790;SDS011;9019;48.132;-1.210;2023-02-24T14:36:55;9.93;;;7.70;;
17790;SDS011;9019;48.132;-1.210;2023-02-24T14:39:25;11.70;;;8.27;;
17790;SDS011;9019;48.132;-1.210;2023-02-24T14:42:08;10.60;;;8.27;;
17790;SDS011;9019;48.132;-1.210;2023-02-24T14:44:39;42.67;;;37.00;;
17790;SDS011;9019;48.132;-1.210;2023-02-24T14:47:08;29.43;;;24.83;;
17790;SDS011;9019;48.132;-1.210;2023-02-24T14:49:36;10.73;;;7.63;;
17790;SDS011;9019;48.132;-1.210;2023-02-24T14:52:04;19.37;;;16.47;;
17790;SDS011;9019;48.132;-1.210;2023-02-24T14:54:35;22.43;;;17.23;;
17790;SDS011;9019;48.132;-1.210;2023-02-24T14:57:07;24.77;;;17.90;;
17790;SDS011;9019;48.132;-1.210;2023-02-24T14:59:37;17.50;;;13.43;;
17790;SDS011;9019;48.132;-1.210;2023-02-24T15:02:10;19.47;;;13.37;;
17790;SDS011;9019;48.132;-1.210;2023-02-24T15:04:42;24.87;;;17.03;;
17790;SDS011;9019;48.132;-1.210;2023-02-24T15:07:14;15.90;;;12.70;;
17790;SDS011;9019;48.132;-1.210;2023-02-24T15:09:42;31.80;;;26.07;;